sensor_id;sensor_type;location;lat;lon;timestamp;temperature;humidity
7498;DHT22;3790;48.806;9.140;2023-09-19T00:04:32;17.20;99.90
7498;DHT22;3790;48.806;9.140;2023-09-19T00:09:33;17.20;99.90
7498;DHT22;3790;48.806;9.140;2023-09-19T00:14:37;17.20;99.90
7498;DHT22;3790;48.806;9.140;2023-09-19T00:19:38;17.30;99.90
7498;DHT22;3790;48.806;9.140;2023-09-19T00:24:41;17.20;99.90
7498;DHT22;3790;48.806;9.140;2023-09-19T00:29:41;17.30;99.90
7498;DHT22;3790;48.806;9.140;2023-09-19T00:34:44;17.40;99.90
7498;DHT22;3790;48.806;9.140;2023-09-19T00:39:44;17.40;99.90
7498;DHT22;3790;48.806;9.140;2023-09-19T00:44:47;17.40;99.90
7498;DHT22;3790;48.806;9.140;2023-09-19T00:49:47;17.30;99.90
7498;DHT22;3790;48.806;9.140;2023-09-19T00:54:53;17.40;99.90
7498;DHT22;3790;48.806;9.140;2023-09-19T00:59:55;17.40;99.90
7498;DHT22;3790;48.806;9.140;2023-09-19T01:04:57;17.50;99.90
7498;DHT22;3790;48.806;9.140;2023-09-19T01:09:58;17.50;99.90
7498;DHT22;3790;48.806;9.140;2023-09-19T01:15:06;17.40;99.90
7498;DHT22;3790;48.806;9.140;2023-09-19T01:20:26;17.40;99.90
7498;DHT22;3790;48.806;9.140;2023-09-19T01:26:00;17.30;99.90
7498;DHT22;3790;48.806;9.140;2023-09-19T01:31:03;17.10;99.90
7498;DHT22;3790;48.806;9.140;2023-09-19T01:36:04;17.10;99.90
7498;DHT22;3790;48.806;9.140;2023-09-19T01:41:09;16.90;99.90
7498;DHT22;3790;48.806;9.140;2023-09-19T01:46:24;16.90;99.90
7498;DHT22;3790;48.806;9.140;2023-09-19T02:01:56;16.90;99.90
7498;DHT22;3790;48.806;9.140;2023-09-19T02:06:57;16.90;99.90
7498;DHT22;3790;48.806;9.140;2023-09-19T02:11:58;16.90;99.90
7498;DHT22;3790;48.806;9.140;2023-09-19T02:16:59;16.80;99.90
7498;DHT22;3790;48.806;9.140;2023-09-19T02:22:00;16.70;99.90
7498;DHT22;3790;48.806;9.140;2023-09-19T02:27:04;16.70;99.90
7498;DHT22;3790;48.806;9.140;2023-09-19T02:32:06;16.70;99.90
7498;DHT22;3790;48.806;9.140;2023-09-19T02:37:07;16.60;99.90
7498;DHT22;3790;48.806;9.140;2023-09-19T02:42:09;16.60;99.90
7498;DHT22;3790;48.806;9.140;2023-09-19T02:47:09;16.60;99.90
7498;DHT22;3790;48.806;9.140;2023-09-19T02:52:10;16.60;99.90
7498;DHT22;3790;48.806;9.140;2023-09-19T02:57:12;16.70;99.90
7498;DHT22;3790;48.806;9.140;2023-09-19T03:02:14;16.70;99.90
7498;DHT22;3790;48.806;9.140;2023-09-19T03:07:15;16.80;99.90
7498;DHT22;3790;48.806;9.140;2023-09-19T03:12:16;16.80;99.90
7498;DHT22;3790;48.806;9.140;2023-09-19T03:17:16;16.90;99.90
7498;DHT22;3790;48.806;9.140;2023-09-19T03:22:18;17.00;99.90
7498;DHT22;3790;48.806;9.140;2023-09-19T03:27:18;16.90;99.90
7498;DHT22;3790;48.806;9.140;2023-09-19T03:32:19;17.00;99.90
7498;DHT22;3790;48.806;9.140;2023-09-19T03:37:19;17.20;99.90
7498;DHT22;3790;48.806;9.140;2023-09-19T03:42:20;17.20;99.90
7498;DHT22;3790;48.806;9.140;2023-09-19T03:47:25;17.20;99.90
7498;DHT22;3790;48.806;9.140;2023-09-19T03:52:26;17.20;99.90
7498;DHT22;3790;48.806;9.140;2023-09-19T03:57:27;17.40;99.90
7498;DHT22;3790;48.806;9.140;2023-09-19T04:02:28;17.50;99.90
7498;DHT22;3790;48.806;9.140;2023-09-19T04:07:33;17.60;99.90
7498;DHT22;3790;48.806;9.140;2023-09-19T04:12:35;17.60;99.90
7498;DHT22;3790;48.806;9.140;2023-09-19T04:17:35;17.60;99.90
7498;DHT22;3790;48.806;9.140;2023-09-19T04:22:37;17.20;99.90
7498;DHT22;3790;48.806;9.140;2023-09-19T04:27:39;17.10;99.90
7498;DHT22;3790;48.806;9.140;2023-09-19T04:32:40;17.30;99.90
7498;DHT22;3790;48.806;9.140;2023-09-19T04:37:41;17.20;99.90
7498;DHT22;3790;48.806;9.140;2023-09-19T04:42:42;17.10;99.90
7498;DHT22;3790;48.806;9.140;2023-09-19T04:47:43;17.20;99.90
7498;DHT22;3790;48.806;9.140;2023-09-19T04:52:44;17.20;99.90
7498;DHT22;3790;48.806;9.140;2023-09-19T04:57:47;17.20;99.90
7498;DHT22;3790;48.806;9.140;2023-09-19T05:02:49;17.10;99.90
7498;DHT22;3790;48.806;9.140;2023-09-19T05:07:51;16.90;99.90
7498;DHT22;3790;48.806;9.140;2023-09-19T05:12:54;16.60;99.90
7498;DHT22;3790;48.806;9.140;2023-09-19T05:17:54;16.40;99.90
7498;DHT22;3790;48.806;9.140;2023-09-19T05:23:00;16.30;99.90
7498;DHT22;3790;48.806;9.140;2023-09-19T05:28:02;16.40;99.90
7498;DHT22;3790;48.806;9.140;2023-09-19T05:33:05;16.30;99.90
7498;DHT22;3790;48.806;9.140;2023-09-19T05:38:07;16.00;99.90
7498;DHT22;3790;48.806;9.140;2023-09-19T05:43:09;15.80;99.90
7498;DHT22;3790;48.806;9.140;2023-09-19T05:48:11;15.60;99.90
7498;DHT22;3790;48.806;9.140;2023-09-19T05:53:13;15.30;99.90
7498;DHT22;3790;48.806;9.140;2023-09-19T05:58:14;15.10;99.90
7498;DHT22;3790;48.806;9.140;2023-09-19T06:03:17;15.10;99.90
7498;DHT22;3790;48.806;9.140;2023-09-19T06:08:19;15.10;99.90
7498;DHT22;3790;48.806;9.140;2023-09-19T06:13:19;14.90;99.90
7498;DHT22;3790;48.806;9.140;2023-09-19T06:18:20;14.80;99.90
7498;DHT22;3790;48.806;9.140;2023-09-19T06:23:21;14.70;99.90
7498;DHT22;3790;48.806;9.140;2023-09-19T06:28:23;14.80;99.90
7498;DHT22;3790;48.806;9.140;2023-09-19T06:33:24;14.90;99.90
7498;DHT22;3790;48.806;9.140;2023-09-19T06:38:24;15.10;99.90
7498;DHT22;3790;48.806;9.140;2023-09-19T06:43:25;15.20;99.90
7498;DHT22;3790;48.806;9.140;2023-09-19T06:48:26;15.30;99.90
7498;DHT22;3790;48.806;9.140;2023-09-19T06:53:27;15.30;99.90
7498;DHT22;3790;48.806;9.140;2023-09-19T06:58:30;15.50;99.90
7498;DHT22;3790;48.806;9.140;2023-09-19T07:03:31;15.60;99.90
7498;DHT22;3790;48.806;9.140;2023-09-19T07:08:33;15.50;99.90
7498;DHT22;3790;48.806;9.140;2023-09-19T07:13:34;15.50;99.90
7498;DHT22;3790;48.806;9.140;2023-09-19T07:18:36;15.40;99.90
7498;DHT22;3790;48.806;9.140;2023-09-19T07:23:37;15.40;99.90
7498;DHT22;3790;48.806;9.140;2023-09-19T07:28:38;15.50;99.90
7498;DHT22;3790;48.806;9.140;2023-09-19T07:33:39;15.50;99.90
7498;DHT22;3790;48.806;9.140;2023-09-19T07:38:40;15.50;99.90
7498;DHT22;3790;48.806;9.140;2023-09-19T07:43:41;15.60;99.90
7498;DHT22;3790;48.806;9.140;2023-09-19T07:48:42;15.70;99.90
7498;DHT22;3790;48.806;9.140;2023-09-19T07:53:48;15.90;99.90
7498;DHT22;3790;48.806;9.140;2023-09-19T07:58:48;16.00;99.90
7498;DHT22;3790;48.806;9.140;2023-09-19T08:03:49;16.00;99.90
7498;DHT22;3790;48.806;9.140;2023-09-19T08:14:47;16.20;99.90
7498;DHT22;3790;48.806;9.140;2023-09-19T08:19:47;16.50;99.90
7498;DHT22;3790;48.806;9.140;2023-09-19T08:24:49;16.60;99.90
7498;DHT22;3790;48.806;9.140;2023-09-19T08:29:50;16.70;99.90
7498;DHT22;3790;48.806;9.140;2023-09-19T08:34:52;16.80;99.90
7498;DHT22;3790;48.806;9.140;2023-09-19T08:39:53;16.90;99.90
7498;DHT22;3790;48.806;9.140;2023-09-19T08:44:54;17.00;99.90
7498;DHT22;3790;48.806;9.140;2023-09-19T08:50:04;17.10;99.90
7498;DHT22;3790;48.806;9.140;2023-09-19T08:55:13;17.20;99.90
7498;DHT22;3790;48.806;9.140;2023-09-19T09:00:20;17.40;99.90
7498;DHT22;3790;48.806;9.140;2023-09-19T09:05:24;17.40;99.90
7498;DHT22;3790;48.806;9.140;2023-09-19T09:10:25;17.50;99.90
7498;DHT22;3790;48.806;9.140;2023-09-19T09:15:25;17.70;99.90
7498;DHT22;3790;48.806;9.140;2023-09-19T09:20:26;17.70;99.90
7498;DHT22;3790;48.806;9.140;2023-09-19T09:25:53;17.70;99.90
7498;DHT22;3790;48.806;9.140;2023-09-19T09:30:57;17.90;99.90
7498;DHT22;3790;48.806;9.140;2023-09-19T09:35:59;18.30;99.90
7498;DHT22;3790;48.806;9.140;2023-09-19T09:41:01;18.70;99.90
7498;DHT22;3790;48.806;9.140;2023-09-19T12:22:24;22.10;99.90
7498;DHT22;3790;48.806;9.140;2023-09-19T12:27:43;22.00;99.90
7498;DHT22;3790;48.806;9.140;2023-09-19T12:37:59;21.50;99.90
7498;DHT22;3790;48.806;9.140;2023-09-19T12:43:00;21.70;99.90
7498;DHT22;3790;48.806;9.140;2023-09-19T12:48:24;22.00;99.90
7498;DHT22;3790;48.806;9.140;2023-09-19T12:53:45;21.40;99.90
7498;DHT22;3790;48.806;9.140;2023-09-19T12:58:56;21.00;99.90
7498;DHT22;3790;48.806;9.140;2023-09-19T13:04:19;21.20;99.90
7498;DHT22;3790;48.806;9.140;2023-09-19T13:09:21;21.00;99.90
7498;DHT22;3790;48.806;9.140;2023-09-19T13:14:23;20.80;99.90
7498;DHT22;3790;48.806;9.140;2023-09-19T13:19:42;21.30;99.90
7498;DHT22;3790;48.806;9.140;2023-09-19T13:35:10;21.80;99.90
7498;DHT22;3790;48.806;9.140;2023-09-19T13:40:13;21.50;99.90
7498;DHT22;3790;48.806;9.140;2023-09-19T13:45:14;21.50;99.90
7498;DHT22;3790;48.806;9.140;2023-09-19T13:50:17;21.10;99.90
7498;DHT22;3790;48.806;9.140;2023-09-19T13:55:24;21.30;99.90
7498;DHT22;3790;48.806;9.140;2023-09-19T14:00:25;21.20;99.90
7498;DHT22;3790;48.806;9.140;2023-09-19T14:05:25;21.00;99.90
7498;DHT22;3790;48.806;9.140;2023-09-19T14:10:28;21.30;99.90
7498;DHT22;3790;48.806;9.140;2023-09-19T14:15:32;21.70;99.90
7498;DHT22;3790;48.806;9.140;2023-09-19T14:20:41;21.80;99.90
7498;DHT22;3790;48.806;9.140;2023-09-19T14:25:42;22.10;99.90
7498;DHT22;3790;48.806;9.140;2023-09-19T14:30:43;22.20;99.90
7498;DHT22;3790;48.806;9.140;2023-09-19T14:35:44;22.00;99.90
7498;DHT22;3790;48.806;9.140;2023-09-19T14:40:44;21.90;99.90
7498;DHT22;3790;48.806;9.140;2023-09-19T14:45:45;22.10;99.90
7498;DHT22;3790;48.806;9.140;2023-09-19T14:50:46;22.50;99.90
7498;DHT22;3790;48.806;9.140;2023-09-19T14:55:50;23.00;99.90
7498;DHT22;3790;48.806;9.140;2023-09-19T15:12:00;22.70;99.90
7498;DHT22;3790;48.806;9.140;2023-09-19T15:17:00;22.40;99.90
7498;DHT22;3790;48.806;9.140;2023-09-19T15:22:01;22.20;99.90
7498;DHT22;3790;48.806;9.140;2023-09-19T15:27:01;22.30;99.90
7498;DHT22;3790;48.806;9.140;2023-09-19T15:43:09;22.30;99.90
7498;DHT22;3790;48.806;9.140;2023-09-19T15:48:12;22.40;99.90
7498;DHT22;3790;48.806;9.140;2023-09-19T15:53:13;22.10;99.90
7498;DHT22;3790;48.806;9.140;2023-09-19T15:58:13;21.90;99.90
7498;DHT22;3790;48.806;9.140;2023-09-19T16:03:14;21.90;99.90
7498;DHT22;3790;48.806;9.140;2023-09-19T16:08:15;21.90;99.90
7498;DHT22;3790;48.806;9.140;2023-09-19T16:13:15;21.90;99.90
7498;DHT22;3790;48.806;9.140;2023-09-19T16:18:16;21.90;99.90
7498;DHT22;3790;48.806;9.140;2023-09-19T16:23:17;21.80;99.90
7498;DHT22;3790;48.806;9.140;2023-09-19T16:28:17;21.80;99.90
7498;DHT22;3790;48.806;9.140;2023-09-19T16:33:18;21.80;99.90
7498;DHT22;3790;48.806;9.140;2023-09-19T16:38:19;21.70;99.90
7498;DHT22;3790;48.806;9.140;2023-09-19T16:43:21;21.50;99.90
7498;DHT22;3790;48.806;9.140;2023-09-19T16:48:26;21.30;99.90
7498;DHT22;3790;48.806;9.140;2023-09-19T16:53:27;21.10;99.90
7498;DHT22;3790;48.806;9.140;2023-09-19T16:58:27;21.00;99.90
7498;DHT22;3790;48.806;9.140;2023-09-19T17:03:30;21.00;99.90
7498;DHT22;3790;48.806;9.140;2023-09-19T17:08:31;21.10;99.90
7498;DHT22;3790;48.806;9.140;2023-09-19T17:13:31;20.90;99.90
7498;DHT22;3790;48.806;9.140;2023-09-19T17:18:34;20.80;99.90
7498;DHT22;3790;48.806;9.140;2023-09-19T17:23:35;20.60;99.90
7498;DHT22;3790;48.806;9.140;2023-09-19T17:28:36;20.50;99.90
7498;DHT22;3790;48.806;9.140;2023-09-19T17:33:37;20.40;99.90
7498;DHT22;3790;48.806;9.140;2023-09-19T17:38:38;20.30;99.90
7498;DHT22;3790;48.806;9.140;2023-09-19T17:43:38;20.10;99.90
7498;DHT22;3790;48.806;9.140;2023-09-19T17:48:40;20.00;99.90
7498;DHT22;3790;48.806;9.140;2023-09-19T17:53:41;19.90;99.90
7498;DHT22;3790;48.806;9.140;2023-09-19T17:58:45;19.80;99.90
7498;DHT22;3790;48.806;9.140;2023-09-19T18:03:46;19.90;99.90
7498;DHT22;3790;48.806;9.140;2023-09-19T18:08:47;19.90;99.90
7498;DHT22;3790;48.806;9.140;2023-09-19T18:13:49;19.80;99.90
7498;DHT22;3790;48.806;9.140;2023-09-19T18:18:51;19.60;99.90
7498;DHT22;3790;48.806;9.140;2023-09-19T18:23:58;19.40;99.90
7498;DHT22;3790;48.806;9.140;2023-09-19T18:28:59;19.20;99.90
7498;DHT22;3790;48.806;9.140;2023-09-19T18:34:00;18.90;99.90
7498;DHT22;3790;48.806;9.140;2023-09-19T18:39:01;18.80;99.90
7498;DHT22;3790;48.806;9.140;2023-09-19T18:44:02;18.80;99.90
7498;DHT22;3790;48.806;9.140;2023-09-19T18:49:02;18.60;99.90
7498;DHT22;3790;48.806;9.140;2023-09-19T18:54:03;18.60;99.90
7498;DHT22;3790;48.806;9.140;2023-09-19T18:59:04;18.70;99.90
7498;DHT22;3790;48.806;9.140;2023-09-19T19:04:08;18.70;99.90
7498;DHT22;3790;48.806;9.140;2023-09-19T19:09:10;18.70;99.90
7498;DHT22;3790;48.806;9.140;2023-09-19T19:14:12;18.70;99.90
7498;DHT22;3790;48.806;9.140;2023-09-19T19:19:12;18.70;99.90
7498;DHT22;3790;48.806;9.140;2023-09-19T19:24:13;18.60;99.90
7498;DHT22;3790;48.806;9.140;2023-09-19T19:29:18;18.60;99.90
7498;DHT22;3790;48.806;9.140;2023-09-19T19:34:18;18.60;99.90
7498;DHT22;3790;48.806;9.140;2023-09-19T19:39:19;18.60;99.90
7498;DHT22;3790;48.806;9.140;2023-09-19T19:44:20;18.60;99.90
7498;DHT22;3790;48.806;9.140;2023-09-19T19:49:21;18.50;99.90
7498;DHT22;3790;48.806;9.140;2023-09-19T19:54:22;18.60;99.90
7498;DHT22;3790;48.806;9.140;2023-09-19T19:59:22;18.70;99.90
7498;DHT22;3790;48.806;9.140;2023-09-19T20:04:23;18.60;99.90
7498;DHT22;3790;48.806;9.140;2023-09-19T20:09:23;18.60;99.90
7498;DHT22;3790;48.806;9.140;2023-09-19T20:14:24;18.60;99.90
7498;DHT22;3790;48.806;9.140;2023-09-19T20:19:25;18.70;99.90
7498;DHT22;3790;48.806;9.140;2023-09-19T20:24:27;18.80;99.90
7498;DHT22;3790;48.806;9.140;2023-09-19T20:29:28;18.80;99.90
7498;DHT22;3790;48.806;9.140;2023-09-19T20:34:29;18.70;99.90
7498;DHT22;3790;48.806;9.140;2023-09-19T20:39:30;18.70;99.90
7498;DHT22;3790;48.806;9.140;2023-09-19T20:44:30;18.50;99.90
7498;DHT22;3790;48.806;9.140;2023-09-19T20:49:31;18.10;99.90
7498;DHT22;3790;48.806;9.140;2023-09-19T20:54:31;17.80;99.90
7498;DHT22;3790;48.806;9.140;2023-09-19T20:59:32;17.60;99.90
7498;DHT22;3790;48.806;9.140;2023-09-19T21:04:32;17.40;99.90
7498;DHT22;3790;48.806;9.140;2023-09-19T21:09:33;17.40;99.90
7498;DHT22;3790;48.806;9.140;2023-09-19T21:14:35;17.40;99.90
7498;DHT22;3790;48.806;9.140;2023-09-19T21:19:35;17.40;99.90
7498;DHT22;3790;48.806;9.140;2023-09-19T21:24:36;17.40;99.90
7498;DHT22;3790;48.806;9.140;2023-09-19T21:29:37;17.50;99.90
7498;DHT22;3790;48.806;9.140;2023-09-19T21:34:38;17.50;99.90
7498;DHT22;3790;48.806;9.140;2023-09-19T21:39:38;17.40;99.90
7498;DHT22;3790;48.806;9.140;2023-09-19T21:44:39;17.20;99.90
7498;DHT22;3790;48.806;9.140;2023-09-19T21:49:39;17.10;99.90
7498;DHT22;3790;48.806;9.140;2023-09-19T21:54:40;17.00;99.90
7498;DHT22;3790;48.806;9.140;2023-09-19T21:59:41;16.90;99.90
7498;DHT22;3790;48.806;9.140;2023-09-19T22:04:47;17.00;99.90
7498;DHT22;3790;48.806;9.140;2023-09-19T22:09:48;16.90;99.90
7498;DHT22;3790;48.806;9.140;2023-09-19T22:14:48;17.00;99.90
7498;DHT22;3790;48.806;9.140;2023-09-19T22:19:49;16.90;99.90
7498;DHT22;3790;48.806;9.140;2023-09-19T22:24:54;16.90;99.90
7498;DHT22;3790;48.806;9.140;2023-09-19T22:29:57;16.80;99.90
7498;DHT22;3790;48.806;9.140;2023-09-19T22:34:59;16.70;99.90
7498;DHT22;3790;48.806;9.140;2023-09-19T22:40:01;16.50;99.90
7498;DHT22;3790;48.806;9.140;2023-09-19T22:45:02;16.30;99.90
7498;DHT22;3790;48.806;9.140;2023-09-19T22:50:04;16.20;99.90
7498;DHT22;3790;48.806;9.140;2023-09-19T22:55:07;16.30;99.90
7498;DHT22;3790;48.806;9.140;2023-09-19T23:00:09;16.20;99.90
7498;DHT22;3790;48.806;9.140;2023-09-19T23:05:14;16.20;99.90
7498;DHT22;3790;48.806;9.140;2023-09-19T23:10:18;16.30;99.90
7498;DHT22;3790;48.806;9.140;2023-09-19T23:15:18;16.30;99.90
7498;DHT22;3790;48.806;9.140;2023-09-19T23:20:19;16.30;99.90
7498;DHT22;3790;48.806;9.140;2023-09-19T23:25:25;16.30;99.90
